Aviation Digital Data Service (ADDS)

Output produced by METARs form (2026 UTC 20 August 2019)
found at http://www.aviationweather.gov/metar/data/
 
METAR text: SBKP 202000Z 13014KT 9999 FEW040 19/13 Q1022
Conditions at: SBKP (CAMPINAS/VIRACOP, BR) observed 2000 UTC 20 August 2019
Temperature: 19.0°C (66°F)
Dewpoint: 13.0°C (55°F) [RH = 68%]
Pressure (altimeter): 30.18 inches Hg (1022.0 mb)
Winds: from the SE (130 degrees) at 16 MPH (14 knots; 7.2 m/s)
Visibility: 6 or more miles (10+ km)
Ceiling: at least 12,000 feet AGL
Clouds: few clouds at 4000 feet AGL
Weather: no significant weather observed at this time

METAR text: SBKP 201900Z 13013KT 9999 FEW040 21/13 Q1021
Conditions at: SBKP (CAMPINAS/VIRACOP, BR) observed 1900 UTC 20 August 2019
Temperature: 21.0°C (70°F)
Dewpoint: 13.0°C (55°F) [RH = 60%]
Pressure (altimeter): 30.15 inches Hg (1021.0 mb)
Winds: from the SE (130 degrees) at 15 MPH (13 knots; 6.7 m/s)
Visibility: 6 or more miles (10+ km)
Ceiling: at least 12,000 feet AGL
Clouds: few clouds at 4000 feet AGL
Weather: no significant weather observed at this time

METAR text: SBKP 201800Z 12013KT CAVOK 21/14 Q1021
Conditions at: SBKP (CAMPINAS/VIRACOP, BR) observed 1800 UTC 20 August 2019
Temperature: 21.0°C (70°F)
Dewpoint: 14.0°C (57°F) [RH = 64%]
Pressure (altimeter): 30.15 inches Hg (1021.0 mb)
Winds: from the ESE (120 degrees) at 15 MPH (13 knots; 6.7 m/s)
Visibility: 6 or more miles (10+ km)
Ceiling: ceiling and visibility are OK
Clouds: unknown
Weather: no significant weather observed at this time

METAR text: SBKP 201700Z 13015KT CAVOK 21/13 Q1021
Conditions at: SBKP (CAMPINAS/VIRACOP, BR) observed 1700 UTC 20 August 2019
Temperature: 21.0°C (70°F)
Dewpoint: 13.0°C (55°F) [RH = 60%]
Pressure (altimeter): 30.15 inches Hg (1021.0 mb)
Winds: from the SE (130 degrees) at 17 MPH (15 knots; 7.7 m/s)
Visibility: 6 or more miles (10+ km)
Ceiling: ceiling and visibility are OK
Clouds: unknown
Weather: no significant weather observed at this time

METAR text: SBKP 201600Z 13012KT CAVOK 22/14 Q1021
Conditions at: SBKP (CAMPINAS/VIRACOP, BR) observed 1600 UTC 20 August 2019
Temperature: 22.0°C (72°F)
Dewpoint: 14.0°C (57°F) [RH = 60%]
Pressure (altimeter): 30.15 inches Hg (1021.0 mb)
Winds: from the SE (130 degrees) at 14 MPH (12 knots; 6.2 m/s)
Visibility: 6 or more miles (10+ km)
Ceiling: ceiling and visibility are OK
Clouds: unknown
Weather: no significant weather observed at this time

METAR text: SBKP 201500Z 13014KT CAVOK 21/13 Q1021
Conditions at: SBKP (CAMPINAS/VIRACOP, BR) observed 1500 UTC 20 August 2019
Temperature: 21.0°C (70°F)
Dewpoint: 13.0°C (55°F) [RH = 60%]
Pressure (altimeter): 30.15 inches Hg (1021.0 mb)
Winds: from the SE (130 degrees) at 16 MPH (14 knots; 7.2 m/s)
Visibility: 6 or more miles (10+ km)
Ceiling: ceiling and visibility are OK
Clouds: unknown
Weather: no significant weather observed at this time

METAR text: SBKP 201400Z 11011KT CAVOK 20/14 Q1023
Conditions at: SBKP (CAMPINAS/VIRACOP, BR) observed 1400 UTC 20 August 2019
Temperature: 20.0°C (68°F)
Dewpoint: 14.0°C (57°F) [RH = 68%]
Pressure (altimeter): 30.21 inches Hg (1023.0 mb)
Winds: from the ESE (110 degrees) at 13 MPH (11 knots; 5.7 m/s)
Visibility: 6 or more miles (10+ km)
Ceiling: ceiling and visibility are OK
Clouds: unknown
Weather: no significant weather observed at this time

METAR text: SBKP 201300Z 10015KT CAVOK 19/13 Q1022
Conditions at: SBKP (CAMPINAS/VIRACOP, BR) observed 1300 UTC 20 August 2019
Temperature: 19.0°C (66°F)
Dewpoint: 13.0°C (55°F) [RH = 68%]
Pressure (altimeter): 30.18 inches Hg (1022.0 mb)
Winds: from the E (100 degrees) at 17 MPH (15 knots; 7.7 m/s)
Visibility: 6 or more miles (10+ km)
Ceiling: ceiling and visibility are OK
Clouds: unknown
Weather: no significant weather observed at this time

METAR text: SBKP 201200Z 12015KT 9999 FEW015 17/13 Q1021
Conditions at: SBKP (CAMPINAS/VIRACOP, BR) observed 1200 UTC 20 August 2019
Temperature: 17.0°C (63°F)
Dewpoint: 13.0°C (55°F) [RH = 77%]
Pressure (altimeter): 30.15 inches Hg (1021.0 mb)
Winds: from the ESE (120 degrees) at 17 MPH (15 knots; 7.7 m/s)
Visibility: 6 or more miles (10+ km)
Ceiling: at least 12,000 feet AGL
Clouds: few clouds at 1500 feet AGL
Weather: no significant weather observed at this time

METAR text: SBKP 201100Z 11014KT 9999 FEW010 SCT100 16/13 Q1021
Conditions at: SBKP (CAMPINAS/VIRACOP, BR) observed 1100 UTC 20 August 2019
Temperature: 16.0°C (61°F)
Dewpoint: 13.0°C (55°F) [RH = 82%]
Pressure (altimeter): 30.15 inches Hg (1021.0 mb)
Winds: from the ESE (110 degrees) at 16 MPH (14 knots; 7.2 m/s)
Visibility: 6 or more miles (10+ km)
Ceiling: at least 12,000 feet AGL
Clouds: few clouds at 1000 feet AGL
scattered clouds at 10000 feet AGL
Weather: no significant weather observed at this time

METAR text: SBKP 201000Z 12012KT 9999 FEW010 BKN100 16/13 Q1020
Conditions at: SBKP (CAMPINAS/VIRACOP, BR) observed 1000 UTC 20 August 2019
Temperature: 16.0°C (61°F)
Dewpoint: 13.0°C (55°F) [RH = 82%]
Pressure (altimeter): 30.12 inches Hg (1020.0 mb)
Winds: from the ESE (120 degrees) at 14 MPH (12 knots; 6.2 m/s)
Visibility: 6 or more miles (10+ km)
Ceiling: 10000 feet AGL
Clouds: few clouds at 1000 feet AGL
broken clouds at 10000 feet AGL
Weather: no significant weather observed at this time

METAR text: SBKP 200900Z 12014KT 9999 FEW010 BKN100 16/13 Q1020
Conditions at: SBKP (CAMPINAS/VIRACOP, BR) observed 0900 UTC 20 August 2019
Temperature: 16.0°C (61°F)
Dewpoint: 13.0°C (55°F) [RH = 82%]
Pressure (altimeter): 30.12 inches Hg (1020.0 mb)
Winds: from the ESE (120 degrees) at 16 MPH (14 knots; 7.2 m/s)
Visibility: 6 or more miles (10+ km)
Ceiling: 10000 feet AGL
Clouds: few clouds at 1000 feet AGL
broken clouds at 10000 feet AGL
Weather: no significant weather observed at this time

METAR text: SBKP 200800Z 13015KT 9999 FEW010 BKN100 16/13 Q1019
Conditions at: SBKP (CAMPINAS/VIRACOP, BR) observed 0800 UTC 20 August 2019
Temperature: 16.0°C (61°F)
Dewpoint: 13.0°C (55°F) [RH = 82%]
Pressure (altimeter): 30.09 inches Hg (1019.0 mb)
Winds: from the SE (130 degrees) at 17 MPH (15 knots; 7.7 m/s)
Visibility: 6 or more miles (10+ km)
Ceiling: 10000 feet AGL
Clouds: few clouds at 1000 feet AGL
broken clouds at 10000 feet AGL
Weather: no significant weather observed at this time

METAR text: SBKP 200700Z 13014KT CAVOK 16/13 Q1019
Conditions at: SBKP (CAMPINAS/VIRACOP, BR) observed 0700 UTC 20 August 2019
Temperature: 16.0°C (61°F)
Dewpoint: 13.0°C (55°F) [RH = 82%]
Pressure (altimeter): 30.09 inches Hg (1019.0 mb)
Winds: from the SE (130 degrees) at 16 MPH (14 knots; 7.2 m/s)
Visibility: 6 or more miles (10+ km)
Ceiling: ceiling and visibility are OK
Clouds: unknown
Weather: no significant weather observed at this time

METAR text: SBKP 200600Z 13015KT CAVOK 15/13 Q10219
Conditions at: SBKP (CAMPINAS/VIRACOP, BR) observed 0600 UTC 20 August 2019
Temperature: 15.0°C (59°F)
Dewpoint: 13.0°C (55°F) [RH = 88%]
Pressure (altimeter): missing
Winds: from the SE (130 degrees) at 17 MPH (15 knots; 7.7 m/s)
Visibility: 6 or more miles (10+ km)
Ceiling: ceiling and visibility are OK
Clouds: unknown
Weather: no significant weather observed at this time

METAR text: SBKP 200500Z 14014KT CAVOK 15/12 Q1020
Conditions at: SBKP (CAMPINAS/VIRACOP, BR) observed 0500 UTC 20 August 2019
Temperature: 15.0°C (59°F)
Dewpoint: 12.0°C (54°F) [RH = 82%]
Pressure (altimeter): 30.12 inches Hg (1020.0 mb)
Winds: from the SE (140 degrees) at 16 MPH (14 knots; 7.2 m/s)
Visibility: 6 or more miles (10+ km)
Ceiling: ceiling and visibility are OK
Clouds: unknown
Weather: no significant weather observed at this time

METAR text: SBKP 200400Z 14014KT CAVOK 15/13 Q1020
Conditions at: SBKP (CAMPINAS/VIRACOP, BR) observed 0400 UTC 20 August 2019
Temperature: 15.0°C (59°F)
Dewpoint: 13.0°C (55°F) [RH = 88%]
Pressure (altimeter): 30.12 inches Hg (1020.0 mb)
Winds: from the SE (140 degrees) at 16 MPH (14 knots; 7.2 m/s)
Visibility: 6 or more miles (10+ km)
Ceiling: ceiling and visibility are OK
Clouds: unknown
Weather: no significant weather observed at this time

METAR text: SBKP 200300Z 13013KT CAVOK 16/13 Q1020
Conditions at: SBKP (CAMPINAS/VIRACOP, BR) observed 0300 UTC 20 August 2019
Temperature: 16.0°C (61°F)
Dewpoint: 13.0°C (55°F) [RH = 82%]
Pressure (altimeter): 30.12 inches Hg (1020.0 mb)
Winds: from the SE (130 degrees) at 15 MPH (13 knots; 6.7 m/s)
Visibility: 6 or more miles (10+ km)
Ceiling: ceiling and visibility are OK
Clouds: unknown
Weather: no significant weather observed at this time

METAR text: SBKP 200200Z 14021KT CAVOK 16/13 Q1020
Conditions at: SBKP (CAMPINAS/VIRACOP, BR) observed 0200 UTC 20 August 2019
Temperature: 16.0°C (61°F)
Dewpoint: 13.0°C (55°F) [RH = 82%]
Pressure (altimeter): 30.12 inches Hg (1020.0 mb)
Winds: from the SE (140 degrees) at 24 MPH (21 knots; 10.8 m/s)
Visibility: 6 or more miles (10+ km)
Ceiling: ceiling and visibility are OK
Clouds: unknown
Weather: no significant weather observed at this time

METAR text: SBKP 200100Z 13021KT CAVOK 16/13 Q1020
Conditions at: SBKP (CAMPINAS/VIRACOP, BR) observed 0100 UTC 20 August 2019
Temperature: 16.0°C (61°F)
Dewpoint: 13.0°C (55°F) [RH = 82%]
Pressure (altimeter): 30.12 inches Hg (1020.0 mb)
Winds: from the SE (130 degrees) at 24 MPH (21 knots; 10.8 m/s)
Visibility: 6 or more miles (10+ km)
Ceiling: ceiling and visibility are OK
Clouds: unknown
Weather: no significant weather observed at this time

METAR text: SBKP 200000Z 13020KT CAVOK 16/13 Q1020
Conditions at: SBKP (CAMPINAS/VIRACOP, BR) observed 0000 UTC 20 August 2019
Temperature: 16.0°C (61°F)
Dewpoint: 13.0°C (55°F) [RH = 82%]
Pressure (altimeter): 30.12 inches Hg (1020.0 mb)
Winds: from the SE (130 degrees) at 23 MPH (20 knots; 10.3 m/s)
Visibility: 6 or more miles (10+ km)
Ceiling: ceiling and visibility are OK
Clouds: unknown
Weather: no significant weather observed at this time

METAR text: SBKP 192300Z 13021KT 9999 SCT045 BKN070 16/13 Q1020
Conditions at: SBKP (CAMPINAS/VIRACOP, BR) observed 2300 UTC 19 August 2019
Temperature: 16.0°C (61°F)
Dewpoint: 13.0°C (55°F) [RH = 82%]
Pressure (altimeter): 30.12 inches Hg (1020.0 mb)
Winds: from the SE (130 degrees) at 24 MPH (21 knots; 10.8 m/s)
Visibility: 6 or more miles (10+ km)
Ceiling: 7000 feet AGL
Clouds: scattered clouds at 4500 feet AGL
broken clouds at 7000 feet AGL
Weather: no significant weather observed at this time

METAR text: SBKP 192200Z 12020KT 9999 FEW020 OVC100 16/13 Q1019 RETS
Conditions at: SBKP (CAMPINAS/VIRACOP, BR) observed 2200 UTC 19 August 2019
Temperature: 16.0°C (61°F)
Dewpoint: 13.0°C (55°F) [RH = 82%]
Pressure (altimeter): 30.09 inches Hg (1019.0 mb)
Winds: from the ESE (120 degrees) at 23 MPH (20 knots; 10.3 m/s)
Visibility: 6 or more miles (10+ km)
Ceiling: 10000 feet AGL
Clouds: few clouds at 2000 feet AGL
overcast cloud deck at 10000 feet AGL
Weather: no significant weather observed at this time

METAR text: SBKP 192138Z 12018KT 9999 FEW020 OVC070 16/13 Q1019 RETS
Conditions at: SBKP (CAMPINAS/VIRACOP, BR) observed 2138 UTC 19 August 2019
Temperature: 16.0°C (61°F)
Dewpoint: 13.0°C (55°F) [RH = 82%]
Pressure (altimeter): 30.09 inches Hg (1019.0 mb)
Winds: from the ESE (120 degrees) at 21 MPH (18 knots; 9.3 m/s)
Visibility: 6 or more miles (10+ km)
Ceiling: 7000 feet AGL
Clouds: few clouds at 2000 feet AGL
overcast cloud deck at 7000 feet AGL
Weather: no significant weather observed at this time

METAR text: SBKP 192100Z 12018KT 9999 -TSRA FEW040CB OVC070 16/13 Q1019
Conditions at: SBKP (CAMPINAS/VIRACOP, BR) observed 2100 UTC 19 August 2019
Temperature: 16.0°C (61°F)
Dewpoint: 13.0°C (55°F) [RH = 82%]
Pressure (altimeter): 30.09 inches Hg (1019.0 mb)
Winds: from the ESE (120 degrees) at 21 MPH (18 knots; 9.3 m/s)
Visibility: 6 or more miles (10+ km)
Ceiling: 7000 feet AGL
Clouds: few clouds at 4000 feet AGL
overcast cloud deck at 7000 feet AGL
Weather: -TSRA  (light rain associated with thunderstorm(s))

METAR text: SBKP 192041Z 13016KT 8000 -TSRA FEW020 FEW040CB OVC070 17/13 Q1019
Conditions at: SBKP (CAMPINAS/VIRACOP, BR) observed 2041 UTC 19 August 2019
Temperature: 17.0°C (63°F)
Dewpoint: 13.0°C (55°F) [RH = 77%]
Pressure (altimeter): 30.09 inches Hg (1019.0 mb)
Winds: from the SE (130 degrees) at 18 MPH (16 knots; 8.2 m/s)
Visibility: 5 miles ( 8 km)
Ceiling: 7000 feet AGL
Clouds: few clouds at 2000 feet AGL
few clouds at 4000 feet AGL
overcast cloud deck at 7000 feet AGL
Weather: -TSRA  (light rain associated with thunderstorm(s))

METAR text: SBKP 192000Z 12022KT 8000 FEW020 OVC070 17/13 Q1019
Conditions at: SBKP (CAMPINAS/VIRACOP, BR) observed 2000 UTC 19 August 2019
Temperature: 17.0°C (63°F)
Dewpoint: 13.0°C (55°F) [RH = 77%]
Pressure (altimeter): 30.09 inches Hg (1019.0 mb)
Winds: from the ESE (120 degrees) at 25 MPH (22 knots; 11.3 m/s)
Visibility: 5 miles ( 8 km)
Ceiling: 7000 feet AGL
Clouds: few clouds at 2000 feet AGL
overcast cloud deck at 7000 feet AGL
Weather: no significant weather observed at this time

METAR text: SBKP 191900Z 12016G26KT 8000 FEW020 OVC070 17/13 Q1018
Conditions at: SBKP (CAMPINAS/VIRACOP, BR) observed 1900 UTC 19 August 2019
Temperature: 17.0°C (63°F)
Dewpoint: 13.0°C (55°F) [RH = 77%]
Pressure (altimeter): 30.06 inches Hg (1018.0 mb)
Winds: from the ESE (120 degrees) at 18 MPH (16 knots; 8.2 m/s)
gusting to 30 MPH (26 knots; 13.4 m/s)
Visibility: 5 miles ( 8 km)
Ceiling: 7000 feet AGL
Clouds: few clouds at 2000 feet AGL
overcast cloud deck at 7000 feet AGL
Weather: no significant weather observed at this time

METAR text: SBKP 191800Z 12018KT 9999 FEW020 BKN080 18/13 Q1019
Conditions at: SBKP (CAMPINAS/VIRACOP, BR) observed 1800 UTC 19 August 2019
Temperature: 18.0°C (64°F)
Dewpoint: 13.0°C (55°F) [RH = 73%]
Pressure (altimeter): 30.09 inches Hg (1019.0 mb)
Winds: from the ESE (120 degrees) at 21 MPH (18 knots; 9.3 m/s)
Visibility: 6 or more miles (10+ km)
Ceiling: 8000 feet AGL
Clouds: few clouds at 2000 feet AGL
broken clouds at 8000 feet AGL
Weather: no significant weather observed at this time

METAR text: SBKP 191700Z 12021KT 9999 FEW020 BKN080 19/13 Q1019
Conditions at: SBKP (CAMPINAS/VIRACOP, BR) observed 1700 UTC 19 August 2019
Temperature: 19.0°C (66°F)
Dewpoint: 13.0°C (55°F) [RH = 68%]
Pressure (altimeter): 30.09 inches Hg (1019.0 mb)
Winds: from the ESE (120 degrees) at 24 MPH (21 knots; 10.8 m/s)
Visibility: 6 or more miles (10+ km)
Ceiling: 8000 feet AGL
Clouds: few clouds at 2000 feet AGL
broken clouds at 8000 feet AGL
Weather: no significant weather observed at this time

METAR text: SBKP 191613Z 11019G29KT 9999 FEW020 20/13 Q1018
Conditions at: SBKP (CAMPINAS/VIRACOP, BR) observed 1613 UTC 19 August 2019
Temperature: 20.0°C (68°F)
Dewpoint: 13.0°C (55°F) [RH = 64%]
Pressure (altimeter): 30.06 inches Hg (1018.0 mb)
Winds: from the ESE (110 degrees) at 22 MPH (19 knots; 9.8 m/s)
gusting to 33 MPH (29 knots; 14.9 m/s)
Visibility: 6 or more miles (10+ km)
Ceiling: at least 12,000 feet AGL
Clouds: few clouds at 2000 feet AGL
Weather: no significant weather observed at this time

METAR text: SBKP 191600Z 10017KT 9999 FEW020 20/13 Q1019
Conditions at: SBKP (CAMPINAS/VIRACOP, BR) observed 1600 UTC 19 August 2019
Temperature: 20.0°C (68°F)
Dewpoint: 13.0°C (55°F) [RH = 64%]
Pressure (altimeter): 30.09 inches Hg (1019.0 mb)
Winds: from the E (100 degrees) at 20 MPH (17 knots; 8.7 m/s)
Visibility: 6 or more miles (10+ km)
Ceiling: at least 12,000 feet AGL
Clouds: few clouds at 2000 feet AGL
Weather: no significant weather observed at this time

METAR text: SBKP 191500Z 11018KT 9999 FEW020 20/13 Q1020
Conditions at: SBKP (CAMPINAS/VIRACOP, BR) observed 1500 UTC 19 August 2019
Temperature: 20.0°C (68°F)
Dewpoint: 13.0°C (55°F) [RH = 64%]
Pressure (altimeter): 30.12 inches Hg (1020.0 mb)
Winds: from the ESE (110 degrees) at 21 MPH (18 knots; 9.3 m/s)
Visibility: 6 or more miles (10+ km)
Ceiling: at least 12,000 feet AGL
Clouds: few clouds at 2000 feet AGL
Weather: no significant weather observed at this time

METAR text: SBKP 191400Z 13019KT 9999 SCT020 20/14 Q1021
Conditions at: SBKP (CAMPINAS/VIRACOP, BR) observed 1400 UTC 19 August 2019
Temperature: 20.0°C (68°F)
Dewpoint: 14.0°C (57°F) [RH = 68%]
Pressure (altimeter): 30.15 inches Hg (1021.0 mb)
Winds: from the SE (130 degrees) at 22 MPH (19 knots; 9.8 m/s)
Visibility: 6 or more miles (10+ km)
Ceiling: at least 12,000 feet AGL
Clouds: scattered clouds at 2000 feet AGL
Weather: no significant weather observed at this time

METAR text: SBKP 191300Z 14019KT 9999 SCT019 SCT083 20/14 Q1020
Conditions at: SBKP (CAMPINAS/VIRACOP, BR) observed 1300 UTC 19 August 2019
Temperature: 20.0°C (68°F)
Dewpoint: 14.0°C (57°F) [RH = 68%]
Pressure (altimeter): 30.12 inches Hg (1020.0 mb)
Winds: from the SE (140 degrees) at 22 MPH (19 knots; 9.8 m/s)
Visibility: 6 or more miles (10+ km)
Ceiling: at least 12,000 feet AGL
Clouds: scattered clouds at 1900 feet AGL
scattered clouds at 8300 feet AGL
Weather: no significant weather observed at this time

METAR text: SBKP 191200Z 13015KT 9999 FEW013 SCT083 19/15 Q1020
Conditions at: SBKP (CAMPINAS/VIRACOP, BR) observed 1200 UTC 19 August 2019
Temperature: 19.0°C (66°F)
Dewpoint: 15.0°C (59°F) [RH = 78%]
Pressure (altimeter): 30.12 inches Hg (1020.0 mb)
Winds: from the SE (130 degrees) at 17 MPH (15 knots; 7.7 m/s)
Visibility: 6 or more miles (10+ km)
Ceiling: at least 12,000 feet AGL
Clouds: few clouds at 1300 feet AGL
scattered clouds at 8300 feet AGL
Weather: no significant weather observed at this time

METAR text: SBKP 191100Z 13013KT 9999 FEW015 SCT100 18/14 Q1019
Conditions at: SBKP (CAMPINAS/VIRACOP, BR) observed 1100 UTC 19 August 2019
Temperature: 18.0°C (64°F)
Dewpoint: 14.0°C (57°F) [RH = 77%]
Pressure (altimeter): 30.09 inches Hg (1019.0 mb)
Winds: from the SE (130 degrees) at 15 MPH (13 knots; 6.7 m/s)
Visibility: 6 or more miles (10+ km)
Ceiling: at least 12,000 feet AGL
Clouds: few clouds at 1500 feet AGL
scattered clouds at 10000 feet AGL
Weather: no significant weather observed at this time

METAR text: SBKP 191000Z 13013KT CAVOK 18/14 Q1018
Conditions at: SBKP (CAMPINAS/VIRACOP, BR) observed 1000 UTC 19 August 2019
Temperature: 18.0°C (64°F)
Dewpoint: 14.0°C (57°F) [RH = 77%]
Pressure (altimeter): 30.06 inches Hg (1018.0 mb)
Winds: from the SE (130 degrees) at 15 MPH (13 knots; 6.7 m/s)
Visibility: 6 or more miles (10+ km)
Ceiling: ceiling and visibility are OK
Clouds: unknown
Weather: no significant weather observed at this time

METAR text: SBKP 190900Z 12015KT CAVOK 18/14 Q1017
Conditions at: SBKP (CAMPINAS/VIRACOP, BR) observed 0900 UTC 19 August 2019
Temperature: 18.0°C (64°F)
Dewpoint: 14.0°C (57°F) [RH = 77%]
Pressure (altimeter): 30.03 inches Hg (1017.0 mb)
Winds: from the ESE (120 degrees) at 17 MPH (15 knots; 7.7 m/s)
Visibility: 6 or more miles (10+ km)
Ceiling: ceiling and visibility are OK
Clouds: unknown
Weather: no significant weather observed at this time

Forecast for: SBKP (CAMPINAS/VIRACOP, BR)
Text: TAF SBKP 201620Z 2018/2118 11010KT CAVOK TN14/2109Z TX24/2117Z
Forecast period: 1800 to 2100 UTC 20 August 2019
Forecast type: FROM: standard forecast or significant change
Winds: from the ESE (110 degrees) at 12 MPH (10 knots; 5.1 m/s)
Visibility: 6 or more miles 10+ km)
Ceiling: unknown
Clouds: missing
Weather: no significant weather forecast for this period
Text: BECMG 2021/2023 13015KT
Forecast period: 2100 UTC 20 August 2019 to 0700 UTC 21 August 2019
Forecast type: BECOMING: Conditions expected to become as follows by 2300 UTC 20 August 2019
Winds: from the SE (130 degrees) at 17 MPH (15 knots; 7.7 m/s)
Visibility: 6 or more miles 10+ km)
Ceiling: unknown
Clouds: missing
Weather: no significant weather forecast for this period
Text: BECMG 2107/2109 11007KT
Forecast period: 0700 to 1300 UTC 21 August 2019
Forecast type: BECOMING: Conditions expected to become as follows by 0900 UTC 21 August 2019
Winds: from the ESE (110 degrees) at 8 MPH (7 knots; 3.6 m/s)
Visibility: 6 or more miles 10+ km)
Ceiling: unknown
Clouds: missing
Weather: no significant weather forecast for this period
Text: PROB30 2109/2112 5000 BR
Forecast period: 0900 to 1200 UTC 21 August 2019
Forecast type: PROBABLE: 30 percent likelihood of the following during this time
Visibility: 3 miles (5 km)
Ceiling: unknown
Clouds: missing
Weather: BR  (mist)
Text: BECMG 2113/2115 13012KT RMK PGG
Forecast period: 1300 to 1800 UTC 21 August 2019
Forecast type: BECOMING: Conditions expected to become as follows by 1500 UTC 21 August 2019
Winds: from the SE (130 degrees) at 14 MPH (12 knots; 6.2 m/s)
Visibility: 6 or more miles 10+ km)
Ceiling: unknown
Clouds: missing
Weather: no significant weather forecast for this period